Peer, Belgium
Current Conditions -  °F | °C
As of 1:25 PM on Friday 21 Nov 2014 (Local Time) from EBBL Reporting Station
Few Clouds Few Clouds  
Wind Chill: 44°   Ceiling: Unl
Heat Index: 46°   Visibility: 6mi
Dew Point: 39°   Wind: 6mph
Humidity: 76%   Direction: 110°ESE
Pressure: 30.15"   Gusts: NA
Location:  51.13°N, 5.46°E
Report Text: EBBL 211225Z 11005KT 9999 FEW012 08/04 Q1021 BLU BLU
Loading
Personal Weather Stations






























Interactive Weather Map New forecast layout! Learn more

10-Day Weather Forecast

Advertisements
Track Severe Weather on mobile